sensor_id;sensor_type;location;lat;lon;timestamp;P1;durP1;ratioP1;P2;durP2;ratioP2
38693;SDS011;24447;43.460;25.744;2023-02-17T00:01:30;43.35;;;15.40;;
38693;SDS011;24447;43.460;25.744;2023-02-17T00:03:56;41.30;;;14.02;;
38693;SDS011;24447;43.460;25.744;2023-02-17T00:06:24;34.03;;;12.05;;
38693;SDS011;24447;43.460;25.744;2023-02-17T00:08:51;45.72;;;14.25;;
38693;SDS011;24447;43.460;25.744;2023-02-17T00:11:17;34.95;;;13.63;;
38693;SDS011;24447;43.460;25.744;2023-02-17T00:13:44;41.53;;;15.40;;
38693;SDS011;24447;43.460;25.744;2023-02-17T00:16:12;40.05;;;13.52;;
38693;SDS011;24447;43.460;25.744;2023-02-17T00:18:41;37.97;;;15.25;;
38693;SDS011;24447;43.460;25.744;2023-02-17T00:21:16;41.03;;;15.23;;
38693;SDS011;24447;43.460;25.744;2023-02-17T00:23:43;39.60;;;16.27;;
38693;SDS011;24447;43.460;25.744;2023-02-17T00:26:10;42.42;;;14.63;;
38693;SDS011;24447;43.460;25.744;2023-02-17T00:28:36;33.97;;;13.32;;
38693;SDS011;24447;43.460;25.744;2023-02-17T00:31:06;45.97;;;16.40;;
38693;SDS011;24447;43.460;25.744;2023-02-17T00:33:35;33.22;;;12.63;;
38693;SDS011;24447;43.460;25.744;2023-02-17T00:36:03;43.67;;;14.93;;
38693;SDS011;24447;43.460;25.744;2023-02-17T00:38:33;41.80;;;16.45;;
38693;SDS011;24447;43.460;25.744;2023-02-17T00:40:59;36.17;;;13.88;;
38693;SDS011;24447;43.460;25.744;2023-02-17T00:43:25;38.55;;;14.30;;
38693;SDS011;24447;43.460;25.744;2023-02-17T00:45:51;47.03;;;13.60;;
38693;SDS011;24447;43.460;25.744;2023-02-17T00:48:17;41.80;;;13.88;;
38693;SDS011;24447;43.460;25.744;2023-02-17T00:50:42;39.47;;;13.25;;
38693;SDS011;24447;43.460;25.744;2023-02-17T00:53:08;36.83;;;13.70;;
38693;SDS011;24447;43.460;25.744;2023-02-17T00:55:34;39.90;;;13.32;;
38693;SDS011;24447;43.460;25.744;2023-02-17T00:58:00;34.92;;;14.88;;
38693;SDS011;24447;43.460;25.744;2023-02-17T01:00:26;43.05;;;12.43;;
38693;SDS011;24447;43.460;25.744;2023-02-17T01:02:52;33.70;;;12.55;;
38693;SDS011;24447;43.460;25.744;2023-02-17T01:05:18;32.63;;;11.38;;
38693;SDS011;24447;43.460;25.744;2023-02-17T01:07:44;36.53;;;13.13;;
38693;SDS011;24447;43.460;25.744;2023-02-17T01:10:10;34.80;;;12.60;;
38693;SDS011;24447;43.460;25.744;2023-02-17T01:12:36;36.78;;;14.00;;
38693;SDS011;24447;43.460;25.744;2023-02-17T01:15:02;40.10;;;13.13;;
38693;SDS011;24447;43.460;25.744;2023-02-17T01:17:28;35.85;;;13.32;;
38693;SDS011;24447;43.460;25.744;2023-02-17T01:19:54;42.70;;;14.45;;
38693;SDS011;24447;43.460;25.744;2023-02-17T01:22:21;44.22;;;13.55;;
38693;SDS011;24447;43.460;25.744;2023-02-17T01:24:47;33.38;;;13.93;;
38693;SDS011;24447;43.460;25.744;2023-02-17T01:27:13;34.83;;;12.93;;
38693;SDS011;24447;43.460;25.744;2023-02-17T01:29:39;41.00;;;14.30;;
38693;SDS011;24447;43.460;25.744;2023-02-17T01:32:05;34.90;;;13.50;;
38693;SDS011;24447;43.460;25.744;2023-02-17T01:34:31;31.35;;;14.45;;
38693;SDS011;24447;43.460;25.744;2023-02-17T01:36:57;37.15;;;12.57;;
38693;SDS011;24447;43.460;25.744;2023-02-17T01:39:23;33.55;;;12.82;;
38693;SDS011;24447;43.460;25.744;2023-02-17T01:41:49;31.10;;;12.00;;
38693;SDS011;24447;43.460;25.744;2023-02-17T01:44:19;32.78;;;10.65;;
38693;SDS011;24447;43.460;25.744;2023-02-17T01:46:47;34.95;;;12.55;;
38693;SDS011;24447;43.460;25.744;2023-02-17T01:51:48;35.35;;;12.00;;
38693;SDS011;24447;43.460;25.744;2023-02-17T01:54:24;38.72;;;13.48;;
38693;SDS011;24447;43.460;25.744;2023-02-17T01:56:53;31.13;;;10.98;;
38693;SDS011;24447;43.460;25.744;2023-02-17T01:59:20;31.65;;;11.38;;
38693;SDS011;24447;43.460;25.744;2023-02-17T02:01:48;38.75;;;12.43;;
38693;SDS011;24447;43.460;25.744;2023-02-17T02:04:16;39.40;;;13.60;;
38693;SDS011;24447;43.460;25.744;2023-02-17T02:06:43;33.97;;;13.18;;
38693;SDS011;24447;43.460;25.744;2023-02-17T02:09:12;38.60;;;13.07;;
38693;SDS011;24447;43.460;25.744;2023-02-17T02:11:49;36.72;;;12.15;;
38693;SDS011;24447;43.460;25.744;2023-02-17T02:14:16;41.50;;;12.57;;
38693;SDS011;24447;43.460;25.744;2023-02-17T02:24:52;34.67;;;12.18;;
38693;SDS011;24447;43.460;25.744;2023-02-17T02:27:39;33.40;;;10.85;;
38693;SDS011;24447;43.460;25.744;2023-02-17T02:33:22;36.08;;;12.00;;
38693;SDS011;24447;43.460;25.744;2023-02-17T02:36:12;36.00;;;12.00;;
38693;SDS011;24447;43.460;25.744;2023-02-17T02:38:49;29.33;;;10.85;;
38693;SDS011;24447;43.460;25.744;2023-02-17T02:41:19;34.88;;;12.50;;
38693;SDS011;24447;43.460;25.744;2023-02-17T02:43:47;36.72;;;11.38;;
38693;SDS011;24447;43.460;25.744;2023-02-17T02:46:14;37.25;;;10.98;;
38693;SDS011;24447;43.460;25.744;2023-02-17T02:48:40;34.15;;;12.40;;
38693;SDS011;24447;43.460;25.744;2023-02-17T03:02:02;40.38;;;13.30;;
38693;SDS011;24447;43.460;25.744;2023-02-17T03:04:31;35.25;;;11.15;;
38693;SDS011;24447;43.460;25.744;2023-02-17T03:07:12;30.52;;;11.52;;
38693;SDS011;24447;43.460;25.744;2023-02-17T03:09:54;34.83;;;11.02;;
38693;SDS011;24447;43.460;25.744;2023-02-17T03:12:22;38.15;;;12.00;;
38693;SDS011;24447;43.460;25.744;2023-02-17T03:14:49;31.85;;;11.15;;
38693;SDS011;24447;43.460;25.744;2023-02-17T03:17:16;35.65;;;11.50;;
38693;SDS011;24447;43.460;25.744;2023-02-17T03:19:43;33.63;;;12.45;;
38693;SDS011;24447;43.460;25.744;2023-02-17T03:22:18;33.20;;;10.40;;
38693;SDS011;24447;43.460;25.744;2023-02-17T03:24:47;25.17;;;8.55;;
38693;SDS011;24447;43.460;25.744;2023-02-17T03:27:12;29.38;;;8.85;;
38693;SDS011;24447;43.460;25.744;2023-02-17T03:29:38;26.65;;;10.57;;
38693;SDS011;24447;43.460;25.744;2023-02-17T03:32:04;29.75;;;10.75;;
38693;SDS011;24447;43.460;25.744;2023-02-17T03:34:31;28.95;;;11.43;;
38693;SDS011;24447;43.460;25.744;2023-02-17T03:36:57;28.83;;;9.38;;
38693;SDS011;24447;43.460;25.744;2023-02-17T03:39:23;31.45;;;10.00;;
38693;SDS011;24447;43.460;25.744;2023-02-17T03:41:49;27.77;;;9.05;;
38693;SDS011;24447;43.460;25.744;2023-02-17T03:44:18;39.03;;;13.93;;
38693;SDS011;24447;43.460;25.744;2023-02-17T03:46:44;30.02;;;9.55;;
38693;SDS011;24447;43.460;25.744;2023-02-17T03:49:11;25.90;;;9.95;;
38693;SDS011;24447;43.460;25.744;2023-02-17T03:51:37;31.40;;;9.98;;
38693;SDS011;24447;43.460;25.744;2023-02-17T03:54:03;25.17;;;9.48;;
38693;SDS011;24447;43.460;25.744;2023-02-17T03:56:30;26.02;;;8.07;;
38693;SDS011;24447;43.460;25.744;2023-02-17T03:58:56;25.85;;;8.88;;
38693;SDS011;24447;43.460;25.744;2023-02-17T04:01:22;34.60;;;11.25;;
38693;SDS011;24447;43.460;25.744;2023-02-17T04:03:48;28.40;;;9.90;;
38693;SDS011;24447;43.460;25.744;2023-02-17T04:06:14;30.65;;;11.15;;
38693;SDS011;24447;43.460;25.744;2023-02-17T04:08:40;27.48;;;10.63;;
38693;SDS011;24447;43.460;25.744;2023-02-17T04:11:07;37.60;;;13.88;;
38693;SDS011;24447;43.460;25.744;2023-02-17T04:13:33;45.10;;;15.63;;
38693;SDS011;24447;43.460;25.744;2023-02-17T04:16:00;43.55;;;15.15;;
38693;SDS011;24447;43.460;25.744;2023-02-17T04:18:28;45.90;;;16.38;;
38693;SDS011;24447;43.460;25.744;2023-02-17T04:20:54;55.60;;;16.70;;
38693;SDS011;24447;43.460;25.744;2023-02-17T04:23:20;55.08;;;20.67;;
38693;SDS011;24447;43.460;25.744;2023-02-17T04:25:46;46.50;;;17.23;;
38693;SDS011;24447;43.460;25.744;2023-02-17T04:28:13;34.55;;;12.57;;
38693;SDS011;24447;43.460;25.744;2023-02-17T04:30:41;46.97;;;17.95;;
38693;SDS011;24447;43.460;25.744;2023-02-17T04:33:08;52.97;;;19.70;;
38693;SDS011;24447;43.460;25.744;2023-02-17T04:35:35;42.58;;;17.23;;
38693;SDS011;24447;43.460;25.744;2023-02-17T04:38:01;44.75;;;15.65;;
38693;SDS011;24447;43.460;25.744;2023-02-17T04:40:27;47.55;;;16.25;;
38693;SDS011;24447;43.460;25.744;2023-02-17T04:42:52;42.17;;;15.07;;
38693;SDS011;24447;43.460;25.744;2023-02-17T04:45:18;42.03;;;14.00;;
38693;SDS011;24447;43.460;25.744;2023-02-17T04:47:44;50.45;;;16.42;;
38693;SDS011;24447;43.460;25.744;2023-02-17T04:50:10;55.17;;;17.77;;
38693;SDS011;24447;43.460;25.744;2023-02-17T04:52:37;55.00;;;18.88;;
38693;SDS011;24447;43.460;25.744;2023-02-17T04:55:03;46.83;;;16.80;;
38693;SDS011;24447;43.460;25.744;2023-02-17T04:57:30;37.88;;;15.85;;
38693;SDS011;24447;43.460;25.744;2023-02-17T04:59:56;47.88;;;18.23;;
38693;SDS011;24447;43.460;25.744;2023-02-17T05:02:22;39.38;;;13.63;;
38693;SDS011;24447;43.460;25.744;2023-02-17T05:04:50;52.05;;;19.67;;
38693;SDS011;24447;43.460;25.744;2023-02-17T05:07:17;38.40;;;13.10;;
38693;SDS011;24447;43.460;25.744;2023-02-17T05:09:43;43.70;;;14.35;;
38693;SDS011;24447;43.460;25.744;2023-02-17T05:12:09;17.48;;;7.28;;
38693;SDS011;24447;43.460;25.744;2023-02-17T05:14:35;43.03;;;16.15;;
38693;SDS011;24447;43.460;25.744;2023-02-17T05:17:01;42.10;;;16.83;;
38693;SDS011;24447;43.460;25.744;2023-02-17T05:19:27;50.75;;;18.25;;
38693;SDS011;24447;43.460;25.744;2023-02-17T05:21:53;32.20;;;12.25;;
38693;SDS011;24447;43.460;25.744;2023-02-17T05:24:19;35.05;;;11.73;;
38693;SDS011;24447;43.460;25.744;2023-02-17T05:26:45;29.80;;;13.30;;
38693;SDS011;24447;43.460;25.744;2023-02-17T05:29:11;35.90;;;12.73;;
38693;SDS011;24447;43.460;25.744;2023-02-17T05:31:37;41.97;;;13.05;;
38693;SDS011;24447;43.460;25.744;2023-02-17T05:34:03;34.63;;;13.50;;
38693;SDS011;24447;43.460;25.744;2023-02-17T05:36:29;42.95;;;17.10;;
38693;SDS011;24447;43.460;25.744;2023-02-17T05:38:55;36.50;;;14.52;;
38693;SDS011;24447;43.460;25.744;2023-02-17T05:41:21;42.88;;;18.40;;
38693;SDS011;24447;43.460;25.744;2023-02-17T05:43:47;52.60;;;18.20;;
38693;SDS011;24447;43.460;25.744;2023-02-17T05:46:13;40.00;;;15.73;;
38693;SDS011;24447;43.460;25.744;2023-02-17T05:48:39;48.75;;;15.60;;
38693;SDS011;24447;43.460;25.744;2023-02-17T05:51:05;46.53;;;15.23;;
38693;SDS011;24447;43.460;25.744;2023-02-17T05:53:32;48.47;;;16.77;;
38693;SDS011;24447;43.460;25.744;2023-02-17T05:55:58;40.15;;;15.23;;
38693;SDS011;24447;43.460;25.744;2023-02-17T05:58:24;49.40;;;18.92;;
38693;SDS011;24447;43.460;25.744;2023-02-17T06:00:51;43.70;;;15.85;;
38693;SDS011;24447;43.460;25.744;2023-02-17T06:03:17;35.78;;;13.88;;
38693;SDS011;24447;43.460;25.744;2023-02-17T06:05:43;43.17;;;13.13;;
38693;SDS011;24447;43.460;25.744;2023-02-17T06:08:09;41.40;;;14.15;;
38693;SDS011;24447;43.460;25.744;2023-02-17T06:10:35;37.28;;;12.43;;
38693;SDS011;24447;43.460;25.744;2023-02-17T06:13:01;33.42;;;11.93;;
38693;SDS011;24447;43.460;25.744;2023-02-17T06:15:27;40.08;;;13.85;;
38693;SDS011;24447;43.460;25.744;2023-02-17T06:17:54;37.10;;;13.07;;
38693;SDS011;24447;43.460;25.744;2023-02-17T06:20:20;38.53;;;14.70;;
38693;SDS011;24447;43.460;25.744;2023-02-17T06:22:49;40.50;;;17.48;;
38693;SDS011;24447;43.460;25.744;2023-02-17T06:25:15;35.65;;;13.98;;
38693;SDS011;24447;43.460;25.744;2023-02-17T06:27:41;34.50;;;12.27;;
38693;SDS011;24447;43.460;25.744;2023-02-17T06:30:08;39.53;;;15.38;;
38693;SDS011;24447;43.460;25.744;2023-02-17T06:32:35;42.88;;;17.45;;
38693;SDS011;24447;43.460;25.744;2023-02-17T06:35:01;45.67;;;20.33;;
38693;SDS011;24447;43.460;25.744;2023-02-17T06:37:27;34.70;;;14.10;;
38693;SDS011;24447;43.460;25.744;2023-02-17T06:39:53;59.05;;;26.25;;
38693;SDS011;24447;43.460;25.744;2023-02-17T06:42:19;48.00;;;18.80;;
38693;SDS011;24447;43.460;25.744;2023-02-17T06:44:45;47.28;;;16.92;;
38693;SDS011;24447;43.460;25.744;2023-02-17T06:47:12;39.90;;;15.75;;
38693;SDS011;24447;43.460;25.744;2023-02-17T06:49:38;52.63;;;21.05;;
38693;SDS011;24447;43.460;25.744;2023-02-17T06:52:04;52.20;;;20.00;;
38693;SDS011;24447;43.460;25.744;2023-02-17T06:54:30;45.17;;;20.92;;
38693;SDS011;24447;43.460;25.744;2023-02-17T06:56:55;49.97;;;20.27;;
38693;SDS011;24447;43.460;25.744;2023-02-17T06:59:22;58.63;;;24.65;;
38693;SDS011;24447;43.460;25.744;2023-02-17T07:01:48;51.28;;;21.55;;
38693;SDS011;24447;43.460;25.744;2023-02-17T07:04:14;51.72;;;22.05;;
38693;SDS011;24447;43.460;25.744;2023-02-17T07:06:41;52.15;;;23.85;;
38693;SDS011;24447;43.460;25.744;2023-02-17T07:09:06;48.65;;;22.20;;
38693;SDS011;24447;43.460;25.744;2023-02-17T07:11:35;54.13;;;23.52;;
38693;SDS011;24447;43.460;25.744;2023-02-17T07:14:01;62.88;;;30.20;;
38693;SDS011;24447;43.460;25.744;2023-02-17T07:16:27;86.82;;;41.67;;
38693;SDS011;24447;43.460;25.744;2023-02-17T07:18:53;127.78;;;59.47;;
38693;SDS011;24447;43.460;25.744;2023-02-17T07:21:19;198.23;;;92.53;;
38693;SDS011;24447;43.460;25.744;2023-02-17T07:23:45;253.55;;;116.03;;
38693;SDS011;24447;43.460;25.744;2023-02-17T07:26:11;245.63;;;119.45;;
38693;SDS011;24447;43.460;25.744;2023-02-17T07:28:37;234.13;;;113.28;;
38693;SDS011;24447;43.460;25.744;2023-02-17T07:31:08;183.00;;;90.82;;
38693;SDS011;24447;43.460;25.744;2023-02-17T07:33:37;167.95;;;84.75;;
38693;SDS011;24447;43.460;25.744;2023-02-17T07:36:05;152.60;;;72.43;;
38693;SDS011;24447;43.460;25.744;2023-02-17T07:38:32;99.85;;;47.83;;
38693;SDS011;24447;43.460;25.744;2023-02-17T07:41:02;101.60;;;48.92;;
38693;SDS011;24447;43.460;25.744;2023-02-17T07:43:29;99.68;;;48.78;;
38693;SDS011;24447;43.460;25.744;2023-02-17T07:45:55;90.85;;;41.65;;
38693;SDS011;24447;43.460;25.744;2023-02-17T07:48:21;82.88;;;37.10;;
38693;SDS011;24447;43.460;25.744;2023-02-17T07:50:47;62.75;;;28.25;;
38693;SDS011;24447;43.460;25.744;2023-02-17T07:53:13;58.75;;;27.80;;
38693;SDS011;24447;43.460;25.744;2023-02-17T07:55:39;49.50;;;23.48;;
38693;SDS011;24447;43.460;25.744;2023-02-17T07:58:05;56.65;;;28.80;;
38693;SDS011;24447;43.460;25.744;2023-02-17T08:00:31;52.65;;;26.67;;
38693;SDS011;24447;43.460;25.744;2023-02-17T08:02:56;48.30;;;21.45;;
38693;SDS011;24447;43.460;25.744;2023-02-17T08:05:22;39.72;;;20.50;;
38693;SDS011;24447;43.460;25.744;2023-02-17T08:07:48;40.78;;;19.52;;
38693;SDS011;24447;43.460;25.744;2023-02-17T08:10:35;45.90;;;23.60;;
38693;SDS011;24447;43.460;25.744;2023-02-17T08:13:21;34.88;;;17.15;;
38693;SDS011;24447;43.460;25.744;2023-02-17T08:15:47;33.42;;;16.52;;
38693;SDS011;24447;43.460;25.744;2023-02-17T08:18:13;32.45;;;14.80;;
38693;SDS011;24447;43.460;25.744;2023-02-17T08:20:39;43.65;;;18.23;;
38693;SDS011;24447;43.460;25.744;2023-02-17T08:23:05;40.05;;;18.02;;
38693;SDS011;24447;43.460;25.744;2023-02-17T08:25:31;38.05;;;16.88;;
38693;SDS011;24447;43.460;25.744;2023-02-17T08:27:58;30.90;;;14.00;;
38693;SDS011;24447;43.460;25.744;2023-02-17T08:30:24;31.92;;;13.27;;
38693;SDS011;24447;43.460;25.744;2023-02-17T08:32:50;30.20;;;12.73;;
38693;SDS011;24447;43.460;25.744;2023-02-17T08:35:16;28.60;;;12.05;;
38693;SDS011;24447;43.460;25.744;2023-02-17T08:37:46;37.83;;;15.27;;
38693;SDS011;24447;43.460;25.744;2023-02-17T08:40:13;34.08;;;12.23;;
38693;SDS011;24447;43.460;25.744;2023-02-17T08:42:39;32.90;;;12.15;;
38693;SDS011;24447;43.460;25.744;2023-02-17T08:45:05;37.28;;;13.48;;
38693;SDS011;24447;43.460;25.744;2023-02-17T08:47:31;32.95;;;14.43;;
38693;SDS011;24447;43.460;25.744;2023-02-17T08:49:59;33.75;;;14.63;;
38693;SDS011;24447;43.460;25.744;2023-02-17T08:52:25;27.35;;;12.23;;
38693;SDS011;24447;43.460;25.744;2023-02-17T08:54:51;29.77;;;11.63;;
38693;SDS011;24447;43.460;25.744;2023-02-17T08:57:17;36.03;;;15.18;;
38693;SDS011;24447;43.460;25.744;2023-02-17T08:59:44;33.67;;;14.60;;
38693;SDS011;24447;43.460;25.744;2023-02-17T09:02:12;32.70;;;14.13;;
38693;SDS011;24447;43.460;25.744;2023-02-17T09:04:38;36.97;;;12.43;;
38693;SDS011;24447;43.460;25.744;2023-02-17T09:07:07;35.63;;;15.65;;
38693;SDS011;24447;43.460;25.744;2023-02-17T09:09:35;32.03;;;14.18;;
38693;SDS011;24447;43.460;25.744;2023-02-17T09:12:01;27.00;;;12.20;;
38693;SDS011;24447;43.460;25.744;2023-02-17T09:14:27;37.20;;;15.02;;
38693;SDS011;24447;43.460;25.744;2023-02-17T09:16:54;54.33;;;22.60;;
38693;SDS011;24447;43.460;25.744;2023-02-17T09:19:20;33.17;;;14.30;;
38693;SDS011;24447;43.460;25.744;2023-02-17T09:21:47;39.60;;;14.68;;
38693;SDS011;24447;43.460;25.744;2023-02-17T09:24:13;40.53;;;15.50;;
38693;SDS011;24447;43.460;25.744;2023-02-17T09:26:40;35.55;;;13.68;;
38693;SDS011;24447;43.460;25.744;2023-02-17T09:29:07;32.67;;;14.00;;
38693;SDS011;24447;43.460;25.744;2023-02-17T09:31:34;27.60;;;10.18;;
38693;SDS011;24447;43.460;25.744;2023-02-17T09:34:01;34.55;;;12.18;;
38693;SDS011;24447;43.460;25.744;2023-02-17T09:36:28;29.48;;;11.27;;
38693;SDS011;24447;43.460;25.744;2023-02-17T09:38:56;29.25;;;12.02;;
38693;SDS011;24447;43.460;25.744;2023-02-17T09:44:03;27.95;;;11.15;;
38693;SDS011;24447;43.460;25.744;2023-02-17T09:46:40;29.60;;;10.38;;
38693;SDS011;24447;43.460;25.744;2023-02-17T09:49:11;26.92;;;11.23;;
38693;SDS011;24447;43.460;25.744;2023-02-17T09:54:19;28.98;;;10.65;;
38693;SDS011;24447;43.460;25.744;2023-02-17T09:56:49;23.20;;;8.90;;
38693;SDS011;24447;43.460;25.744;2023-02-17T09:59:19;26.15;;;10.60;;
38693;SDS011;24447;43.460;25.744;2023-02-17T10:01:47;25.70;;;9.82;;
38693;SDS011;24447;43.460;25.744;2023-02-17T10:04:18;23.67;;;10.05;;
38693;SDS011;24447;43.460;25.744;2023-02-17T10:06:47;24.83;;;10.07;;
38693;SDS011;24447;43.460;25.744;2023-02-17T10:12:12;22.77;;;9.63;;
38693;SDS011;24447;43.460;25.744;2023-02-17T10:14:45;26.15;;;9.98;;
38693;SDS011;24447;43.460;25.744;2023-02-17T10:20:14;25.55;;;10.15;;
38693;SDS011;24447;43.460;25.744;2023-02-17T10:22:44;22.98;;;9.18;;
38693;SDS011;24447;43.460;25.744;2023-02-17T10:25:16;26.85;;;10.90;;
38693;SDS011;24447;43.460;25.744;2023-02-17T10:28:09;24.35;;;9.50;;
38693;SDS011;24447;43.460;25.744;2023-02-17T10:31:11;27.85;;;12.82;;
38693;SDS011;24447;43.460;25.744;2023-02-17T10:33:44;28.25;;;11.90;;
38693;SDS011;24447;43.460;25.744;2023-02-17T10:39:14;31.88;;;12.57;;
38693;SDS011;24447;43.460;25.744;2023-02-17T10:42:10;30.95;;;12.57;;
38693;SDS011;24447;43.460;25.744;2023-02-17T10:44:45;28.27;;;11.32;;
38693;SDS011;24447;43.460;25.744;2023-02-17T10:47:13;27.10;;;10.73;;
38693;SDS011;24447;43.460;25.744;2023-02-17T10:49:41;24.73;;;10.70;;
38693;SDS011;24447;43.460;25.744;2023-02-17T10:52:19;25.97;;;8.93;;
38693;SDS011;24447;43.460;25.744;2023-02-17T10:54:55;24.00;;;9.40;;
38693;SDS011;24447;43.460;25.744;2023-02-17T10:57:24;20.58;;;8.38;;
38693;SDS011;24447;43.460;25.744;2023-02-17T10:59:56;19.73;;;8.48;;
38693;SDS011;24447;43.460;25.744;2023-02-17T11:05:02;24.73;;;8.73;;
38693;SDS011;24447;43.460;25.744;2023-02-17T11:10:02;20.63;;;8.85;;
38693;SDS011;24447;43.460;25.744;2023-02-17T11:12:44;23.67;;;9.05;;
38693;SDS011;24447;43.460;25.744;2023-02-17T11:15:15;21.77;;;8.88;;
38693;SDS011;24447;43.460;25.744;2023-02-17T11:17:42;24.38;;;8.52;;
38693;SDS011;24447;43.460;25.744;2023-02-17T11:25:26;23.25;;;8.95;;
38693;SDS011;24447;43.460;25.744;2023-02-17T11:27:53;23.15;;;9.02;;
38693;SDS011;24447;43.460;25.744;2023-02-17T11:30:20;25.58;;;8.65;;
38693;SDS011;24447;43.460;25.744;2023-02-17T11:32:47;19.80;;;8.88;;
38693;SDS011;24447;43.460;25.744;2023-02-17T11:35:24;28.00;;;10.25;;
38693;SDS011;24447;43.460;25.744;2023-02-17T11:38:08;23.40;;;7.68;;
38693;SDS011;24447;43.460;25.744;2023-02-17T11:40:36;26.33;;;10.45;;
38693;SDS011;24447;43.460;25.744;2023-02-17T11:43:02;23.48;;;8.68;;
38693;SDS011;24447;43.460;25.744;2023-02-17T11:57:17;38.38;;;15.02;;
38693;SDS011;24447;43.460;25.744;2023-02-17T12:02:38;17.23;;;8.10;;
38693;SDS011;24447;43.460;25.744;2023-02-17T12:07:52;23.05;;;8.70;;
38693;SDS011;24447;43.460;25.744;2023-02-17T12:19:00;25.65;;;8.60;;
38693;SDS011;24447;43.460;25.744;2023-02-17T12:21:38;20.42;;;7.95;;
38693;SDS011;24447;43.460;25.744;2023-02-17T12:26:49;27.75;;;10.77;;
38693;SDS011;24447;43.460;25.744;2023-02-17T12:32:17;18.60;;;7.75;;
38693;SDS011;24447;43.460;25.744;2023-02-17T12:34:52;25.90;;;9.77;;
38693;SDS011;24447;43.460;25.744;2023-02-17T12:37:23;30.70;;;12.13;;
38693;SDS011;24447;43.460;25.744;2023-02-17T12:39:54;35.50;;;13.57;;
38693;SDS011;24447;43.460;25.744;2023-02-17T12:42:23;26.58;;;9.60;;
38693;SDS011;24447;43.460;25.744;2023-02-17T12:44:53;26.52;;;9.75;;
38693;SDS011;24447;43.460;25.744;2023-02-17T12:50:21;27.88;;;11.48;;
38693;SDS011;24447;43.460;25.744;2023-02-17T12:52:53;23.65;;;9.75;;
38693;SDS011;24447;43.460;25.744;2023-02-17T12:55:23;24.05;;;10.38;;
38693;SDS011;24447;43.460;25.744;2023-02-17T13:00:34;26.60;;;11.30;;
38693;SDS011;24447;43.460;25.744;2023-02-17T13:03:11;27.45;;;11.07;;
38693;SDS011;24447;43.460;25.744;2023-02-17T13:05:50;24.27;;;8.45;;
38693;SDS011;24447;43.460;25.744;2023-02-17T13:11:06;26.27;;;9.13;;
38693;SDS011;24447;43.460;25.744;2023-02-17T13:13:36;26.00;;;10.23;;
38693;SDS011;24447;43.460;25.744;2023-02-17T13:18:36;20.52;;;8.05;;
38693;SDS011;24447;43.460;25.744;2023-02-17T13:24:05;24.23;;;9.23;;
38693;SDS011;24447;43.460;25.744;2023-02-17T13:26:38;23.73;;;9.70;;
38693;SDS011;24447;43.460;25.744;2023-02-17T13:29:15;44.88;;;16.30;;
38693;SDS011;24447;43.460;25.744;2023-02-17T13:31:55;29.15;;;9.90;;
38693;SDS011;24447;43.460;25.744;2023-02-17T13:34:27;29.15;;;10.88;;
38693;SDS011;24447;43.460;25.744;2023-02-17T13:37:23;37.60;;;14.00;;
38693;SDS011;24447;43.460;25.744;2023-02-17T13:39:52;20.13;;;9.13;;
38693;SDS011;24447;43.460;25.744;2023-02-17T13:45:47;29.00;;;11.48;;
38693;SDS011;24447;43.460;25.744;2023-02-17T13:47:55;32.08;;;13.68;;
38693;SDS011;24447;43.460;25.744;2023-02-17T13:50:42;28.35;;;12.15;;
38693;SDS011;24447;43.460;25.744;2023-02-17T13:53:21;23.25;;;9.32;;
38693;SDS011;24447;43.460;25.744;2023-02-17T13:55:50;23.15;;;8.90;;
38693;SDS011;24447;43.460;25.744;2023-02-17T13:58:22;29.85;;;10.30;;
38693;SDS011;24447;43.460;25.744;2023-02-17T14:00:49;25.48;;;10.18;;
38693;SDS011;24447;43.460;25.744;2023-02-17T14:05:50;26.13;;;10.40;;
38693;SDS011;24447;43.460;25.744;2023-02-17T14:08:37;26.50;;;11.15;;
38693;SDS011;24447;43.460;25.744;2023-02-17T14:11:11;32.55;;;12.52;;
38693;SDS011;24447;43.460;25.744;2023-02-17T14:13:40;24.30;;;11.27;;
38693;SDS011;24447;43.460;25.744;2023-02-17T14:19:09;25.00;;;9.90;;
38693;SDS011;24447;43.460;25.744;2023-02-17T14:21:37;25.95;;;9.57;;
38693;SDS011;24447;43.460;25.744;2023-02-17T14:24:25;24.27;;;11.05;;
38693;SDS011;24447;43.460;25.744;2023-02-17T14:26:57;29.08;;;13.20;;
38693;SDS011;24447;43.460;25.744;2023-02-17T14:29:44;31.63;;;12.55;;
38693;SDS011;24447;43.460;25.744;2023-02-17T14:37:40;31.10;;;11.15;;
38693;SDS011;24447;43.460;25.744;2023-02-17T14:40:13;20.05;;;8.38;;
38693;SDS011;24447;43.460;25.744;2023-02-17T14:42:41;30.13;;;11.98;;
38693;SDS011;24447;43.460;25.744;2023-02-17T14:45:08;21.00;;;8.55;;
38693;SDS011;24447;43.460;25.744;2023-02-17T14:47:34;25.92;;;10.65;;
38693;SDS011;24447;43.460;25.744;2023-02-17T14:50:00;23.45;;;9.68;;
38693;SDS011;24447;43.460;25.744;2023-02-17T14:52:25;25.88;;;9.18;;
38693;SDS011;24447;43.460;25.744;2023-02-17T14:54:51;20.02;;;7.65;;
38693;SDS011;24447;43.460;25.744;2023-02-17T14:57:18;23.55;;;8.10;;
38693;SDS011;24447;43.460;25.744;2023-02-17T15:02:15;23.10;;;7.25;;
38693;SDS011;24447;43.460;25.744;2023-02-17T15:04:43;53.88;;;21.42;;
38693;SDS011;24447;43.460;25.744;2023-02-17T15:07:13;37.83;;;14.88;;
38693;SDS011;24447;43.460;25.744;2023-02-17T15:09:43;43.22;;;14.43;;
38693;SDS011;24447;43.460;25.744;2023-02-17T15:12:14;69.43;;;27.23;;
38693;SDS011;24447;43.460;25.744;2023-02-17T15:14:41;79.38;;;32.45;;
38693;SDS011;24447;43.460;25.744;2023-02-17T15:17:07;95.80;;;39.92;;
38693;SDS011;24447;43.460;25.744;2023-02-17T15:19:33;79.38;;;34.70;;
38693;SDS011;24447;43.460;25.744;2023-02-17T15:21:59;54.75;;;19.95;;
38693;SDS011;24447;43.460;25.744;2023-02-17T15:24:29;75.13;;;34.33;;
38693;SDS011;24447;43.460;25.744;2023-02-17T15:26:56;64.45;;;26.92;;
38693;SDS011;24447;43.460;25.744;2023-02-17T15:29:22;56.67;;;23.60;;
38693;SDS011;24447;43.460;25.744;2023-02-17T15:31:51;53.35;;;28.55;;
38693;SDS011;24447;43.460;25.744;2023-02-17T15:34:18;61.85;;;28.85;;
38693;SDS011;24447;43.460;25.744;2023-02-17T15:36:46;70.80;;;34.47;;
38693;SDS011;24447;43.460;25.744;2023-02-17T15:39:13;72.95;;;38.55;;
38693;SDS011;24447;43.460;25.744;2023-02-17T15:41:41;94.15;;;42.75;;
38693;SDS011;24447;43.460;25.744;2023-02-17T15:44:13;87.93;;;38.83;;
38693;SDS011;24447;43.460;25.744;2023-02-17T15:46:41;94.88;;;41.65;;
38693;SDS011;24447;43.460;25.744;2023-02-17T15:49:10;76.35;;;34.45;;
38693;SDS011;24447;43.460;25.744;2023-02-17T15:51:37;78.38;;;37.63;;
38693;SDS011;24447;43.460;25.744;2023-02-17T15:54:03;79.65;;;36.03;;
38693;SDS011;24447;43.460;25.744;2023-02-17T15:56:31;74.57;;;34.35;;
38693;SDS011;24447;43.460;25.744;2023-02-17T15:59:15;70.85;;;34.15;;
38693;SDS011;24447;43.460;25.744;2023-02-17T16:01:43;71.20;;;32.55;;
38693;SDS011;24447;43.460;25.744;2023-02-17T16:04:10;58.42;;;28.02;;
38693;SDS011;24447;43.460;25.744;2023-02-17T16:06:37;82.75;;;37.10;;
38693;SDS011;24447;43.460;25.744;2023-02-17T16:09:04;90.47;;;37.30;;
38693;SDS011;24447;43.460;25.744;2023-02-17T16:11:30;79.10;;;34.10;;